Terminal Aerodrome Forecast
Issued by NWS Knoxville/Tri Cities, TN

Home | Current Version | Previous Version | Text Only | Print | Product List | Glossary On
Versions: 1 2 3 4 5 6 7 8 9 10 11 12 13 14 15 16 17 18 19 20 21
000
FTUS44 KMRX 242338
TAFCHA
TAF
KCHA 242338Z 2500/2524 26010KT P6SM SCT035 OVC100
     FM250100 28007KT P6SM SCT050 BKN100
     FM250400 VRB04KT P6SM BKN050
     FM251000 25006KT P6SM OVC030
     FM251500 25010KT P6SM BKN040=

USA.gov is the U.S. government's official web portal to all federal, state and local government web resources and services.